sensor_id;sensor_type;location;lat;lon;timestamp;pressure;altitude;pressure_sealevel;temperature;humidity
11440;BME280;5776;51.814;4.510;2023-01-27T00:00:03;102624.03;;;6.28;100.00
11440;BME280;5776;51.814;4.510;2023-01-27T00:02:31;102637.53;;;6.28;100.00
11440;BME280;5776;51.814;4.510;2023-01-27T00:04:57;102634.00;;;6.28;100.00
11440;BME280;5776;51.814;4.510;2023-01-27T00:07:23;102626.97;;;6.27;100.00
11440;BME280;5776;51.814;4.510;2023-01-27T00:09:49;102626.97;;;6.27;100.00
11440;BME280;5776;51.814;4.510;2023-01-27T00:12:20;102624.84;;;6.29;100.00
11440;BME280;5776;51.814;4.510;2023-01-27T00:15:06;102622.59;;;6.26;100.00
11440;BME280;5776;51.814;4.510;2023-01-27T00:17:33;102631.50;;;6.26;100.00
11440;BME280;5776;51.814;4.510;2023-01-27T00:19:59;102622.22;;;6.22;100.00
11440;BME280;5776;51.814;4.510;2023-01-27T00:22:25;102614.13;;;6.22;100.00
11440;BME280;5776;51.814;4.510;2023-01-27T00:25:09;102622.22;;;6.22;100.00
11440;BME280;5776;51.814;4.510;2023-01-27T00:27:35;102626.75;;;6.22;100.00
11440;BME280;5776;51.814;4.510;2023-01-27T00:30:01;102618.91;;;6.20;100.00
11440;BME280;5776;51.814;4.510;2023-01-27T00:32:30;102616.19;;;6.20;100.00
11440;BME280;5776;51.814;4.510;2023-01-27T00:35:15;102607.03;;;6.21;100.00
11440;BME280;5776;51.814;4.510;2023-01-27T00:37:42;102609.97;;;6.20;100.00
11440;BME280;5776;51.814;4.510;2023-01-27T00:40:09;102612.69;;;6.20;100.00
11440;BME280;5776;51.814;4.510;2023-01-27T00:42:35;102614.53;;;6.19;100.00
11440;BME280;5776;51.814;4.510;2023-01-27T00:45:01;102614.53;;;6.19;100.00
11440;BME280;5776;51.814;4.510;2023-01-27T00:47:47;102611.00;;;6.19;100.00
11440;BME280;5776;51.814;4.510;2023-01-27T00:50:13;102614.53;;;6.19;100.00
11440;BME280;5776;51.814;4.510;2023-01-27T00:52:39;102615.13;;;6.21;100.00
11440;BME280;5776;51.814;4.510;2023-01-27T00:55:06;102615.38;;;6.20;100.00
11440;BME280;5776;51.814;4.510;2023-01-27T00:57:32;102607.47;;;6.18;100.00
11440;BME280;5776;51.814;4.510;2023-01-27T00:59:58;102614.53;;;6.19;100.00
11440;BME280;5776;51.814;4.510;2023-01-27T01:02:24;102620.34;;;6.16;100.00
11440;BME280;5776;51.814;4.510;2023-01-27T01:04:50;102612.25;;;6.16;100.00
11440;BME280;5776;51.814;4.510;2023-01-27T01:07:15;102618.91;;;6.14;100.00
11440;BME280;5776;51.814;4.510;2023-01-27T01:09:41;102617.91;;;6.15;100.00
11440;BME280;5776;51.814;4.510;2023-01-27T01:12:07;102615.41;;;6.13;100.00
11440;BME280;5776;51.814;4.510;2023-01-27T01:14:33;102617.28;;;6.13;100.00
11440;BME280;5776;51.814;4.510;2023-01-27T01:16:59;102629.94;;;6.12;100.00
11440;BME280;5776;51.814;4.510;2023-01-27T01:19:25;102626.38;;;6.12;100.00
11440;BME280;5776;51.814;4.510;2023-01-27T01:21:51;102624.94;;;6.09;100.00
11440;BME280;5776;51.814;4.510;2023-01-27T01:24:17;102623.31;;;6.08;100.00
11440;BME280;5776;51.814;4.510;2023-01-27T01:26:43;102623.50;;;6.06;100.00
11440;BME280;5776;51.814;4.510;2023-01-27T01:29:09;102622.06;;;6.04;100.00
11440;BME280;5776;51.814;4.510;2023-01-27T01:31:34;102614.59;;;6.06;100.00
11440;BME280;5776;51.814;4.510;2023-01-27T01:34:00;102630.78;;;6.06;100.00
11440;BME280;5776;51.814;4.510;2023-01-27T01:36:26;102621.03;;;6.05;100.00
11440;BME280;5776;51.814;4.510;2023-01-27T01:38:55;102623.75;;;6.05;100.00
11440;BME280;5776;51.814;4.510;2023-01-27T01:41:22;102633.72;;;6.04;100.00
11440;BME280;5776;51.814;4.510;2023-01-27T01:43:49;102625.19;;;6.01;100.00
11440;BME280;5776;51.814;4.510;2023-01-27T01:46:16;102633.28;;;6.01;100.00
11440;BME280;5776;51.814;4.510;2023-01-27T01:48:51;102639.50;;;6.01;100.00
11440;BME280;5776;51.814;4.510;2023-01-27T01:51:31;102634.97;;;6.02;100.00
11440;BME280;5776;51.814;4.510;2023-01-27T01:56:34;102630.59;;;6.01;100.00
11440;BME280;5776;51.814;4.510;2023-01-27T01:59:06;102642.44;;;6.00;100.00
11440;BME280;5776;51.814;4.510;2023-01-27T02:01:34;102634.53;;;5.98;100.00
11440;BME280;5776;51.814;4.510;2023-01-27T02:04:04;102641.81;;;5.98;100.00
11440;BME280;5776;51.814;4.510;2023-01-27T02:06:38;102633.31;;;5.94;100.00
11440;BME280;5776;51.814;4.510;2023-01-27T02:09:05;102640.16;;;5.97;100.00
11440;BME280;5776;51.814;4.510;2023-01-27T02:11:31;102646.59;;;5.96;100.00
11440;BME280;5776;51.814;4.510;2023-01-27T02:13:59;102639.56;;;5.95;100.00
11440;BME280;5776;51.814;4.510;2023-01-27T02:16:27;102639.09;;;5.91;100.00
11440;BME280;5776;51.814;4.510;2023-01-27T02:18:53;102638.28;;;5.91;100.00
11440;BME280;5776;51.814;4.510;2023-01-27T02:21:19;102637.03;;;5.93;100.00
11440;BME280;5776;51.814;4.510;2023-01-27T02:24:00;102649.69;;;5.93;100.00
11440;BME280;5776;51.814;4.510;2023-01-27T02:26:37;102644.72;;;5.90;100.00
11440;BME280;5776;51.814;4.510;2023-01-27T02:29:10;102646.81;;;5.88;100.00
11440;BME280;5776;51.814;4.510;2023-01-27T02:31:37;102644.09;;;5.88;100.00
11440;BME280;5776;51.814;4.510;2023-01-27T02:34:06;102641.41;;;5.88;100.00
11440;BME280;5776;51.814;4.510;2023-01-27T02:36:37;102632.25;;;5.89;100.00
11440;BME280;5776;51.814;4.510;2023-01-27T02:39:05;102634.13;;;5.88;100.00
11440;BME280;5776;51.814;4.510;2023-01-27T02:41:36;102640.78;;;5.85;100.00
11440;BME280;5776;51.814;4.510;2023-01-27T02:44:06;102645.13;;;5.87;100.00
11440;BME280;5776;51.814;4.510;2023-01-27T02:46:32;102639.16;;;5.84;100.00
11440;BME280;5776;51.814;4.510;2023-01-27T02:48:58;102644.13;;;5.81;100.00
11440;BME280;5776;51.814;4.510;2023-01-27T02:51:24;102644.13;;;5.81;100.00
11440;BME280;5776;51.814;4.510;2023-01-27T02:53:50;102639.78;;;5.80;100.00
11440;BME280;5776;51.814;4.510;2023-01-27T02:56:15;102646.19;;;5.79;100.00
11440;BME280;5776;51.814;4.510;2023-01-27T02:58:41;102646.59;;;5.82;100.00
11440;BME280;5776;51.814;4.510;2023-01-27T03:01:07;102651.19;;;5.82;100.00
11440;BME280;5776;51.814;4.510;2023-01-27T03:03:33;102658.66;;;5.80;100.00
11440;BME280;5776;51.814;4.510;2023-01-27T03:05:59;102660.53;;;5.79;100.00
11440;BME280;5776;51.814;4.510;2023-01-27T03:08:25;102657.81;;;5.79;100.00
11440;BME280;5776;51.814;4.510;2023-01-27T03:10:52;102650.56;;;5.73;100.00
11440;BME280;5776;51.814;4.510;2023-01-27T03:13:22;102655.75;;;5.75;100.00
11440;BME280;5776;51.814;4.510;2023-01-27T03:15:49;102656.56;;;5.75;100.00
11440;BME280;5776;51.814;4.510;2023-01-27T03:18:34;102658.22;;;5.76;100.00
11440;BME280;5776;51.814;4.510;2023-01-27T03:21:03;102651.19;;;5.75;100.00
11440;BME280;5776;51.814;4.510;2023-01-27T03:23:30;102663.63;;;5.76;100.00
11440;BME280;5776;51.814;4.510;2023-01-27T03:26:00;102658.22;;;5.76;100.00
11440;BME280;5776;51.814;4.510;2023-01-27T03:28:26;102655.97;;;5.73;100.00
11440;BME280;5776;51.814;4.510;2023-01-27T03:31:07;102659.72;;;5.72;100.00
11440;BME280;5776;51.814;4.510;2023-01-27T03:33:34;102662.41;;;5.72;100.00
11440;BME280;5776;51.814;4.510;2023-01-27T03:36:01;102674.81;;;5.73;100.00
11440;BME280;5776;51.814;4.510;2023-01-27T03:38:45;102676.91;;;5.71;100.00
11440;BME280;5776;51.814;4.510;2023-01-27T03:41:30;102666.94;;;5.72;100.00
11440;BME280;5776;51.814;4.510;2023-01-27T03:44:14;102676.50;;;5.74;100.00
11440;BME280;5776;51.814;4.510;2023-01-27T03:46:59;102680.66;;;5.70;100.00
11440;BME280;5776;51.814;4.510;2023-01-27T03:49:25;102674.63;;;5.68;100.00
11440;BME280;5776;51.814;4.510;2023-01-27T03:51:51;102673.81;;;5.68;100.00
11440;BME280;5776;51.814;4.510;2023-01-27T03:54:17;102678.16;;;5.69;100.00
11440;BME280;5776;51.814;4.510;2023-01-27T03:56:44;102681.47;;;5.71;100.00
11440;BME280;5776;51.814;4.510;2023-01-27T03:59:13;102678.97;;;5.69;100.00
11440;BME280;5776;51.814;4.510;2023-01-27T04:01:38;102687.50;;;5.66;100.00
11440;BME280;5776;51.814;4.510;2023-01-27T04:04:04;102684.38;;;5.69;100.00
11440;BME280;5776;51.814;4.510;2023-01-27T04:06:49;102684.78;;;5.66;100.00
11440;BME280;5776;51.814;4.510;2023-01-27T04:09:45;102687.91;;;5.63;100.00
11440;BME280;5776;51.814;4.510;2023-01-27T04:12:11;102693.13;;;5.65;100.00
11440;BME280;5776;51.814;4.510;2023-01-27T04:14:37;102694.13;;;5.63;100.00
11440;BME280;5776;51.814;4.510;2023-01-27T04:17:14;102700.34;;;5.64;100.00
11440;BME280;5776;51.814;4.510;2023-01-27T04:19:41;102703.03;;;5.64;100.00
11440;BME280;5776;51.814;4.510;2023-01-27T04:22:09;102712.59;;;5.60;100.00
11440;BME280;5776;51.814;4.510;2023-01-27T04:24:35;102713.03;;;5.57;100.00
11440;BME280;5776;51.814;4.510;2023-01-27T04:27:07;102725.44;;;5.58;100.00
11440;BME280;5776;51.814;4.510;2023-01-27T04:29:38;102721.50;;;5.54;100.00
11440;BME280;5776;51.814;4.510;2023-01-27T04:32:06;102722.56;;;5.53;100.00
11440;BME280;5776;51.814;4.510;2023-01-27T04:34:34;102726.31;;;5.52;100.00
11440;BME280;5776;51.814;4.510;2023-01-27T04:37:00;102727.31;;;5.51;100.00
11440;BME280;5776;51.814;4.510;2023-01-27T04:39:28;102721.94;;;5.51;100.00
11440;BME280;5776;51.814;4.510;2023-01-27T04:41:55;102732.09;;;5.49;100.00
11440;BME280;5776;51.814;4.510;2023-01-27T04:44:21;102736.84;;;5.47;100.00
11440;BME280;5776;51.814;4.510;2023-01-27T04:46:48;102739.53;;;5.47;100.00
11440;BME280;5776;51.814;4.510;2023-01-27T04:49:15;102743.28;;;5.46;100.00
11440;BME280;5776;51.814;4.510;2023-01-27T04:51:41;102734.38;;;5.45;100.00
11440;BME280;5776;51.814;4.510;2023-01-27T04:54:06;102734.56;;;5.44;100.00
11440;BME280;5776;51.814;4.510;2023-01-27T04:56:36;102736.63;;;5.41;100.00
11440;BME280;5776;51.814;4.510;2023-01-27T04:59:07;102741.63;;;5.45;100.00
11440;BME280;5776;51.814;4.510;2023-01-27T05:01:35;102725.84;;;5.41;100.00
11440;BME280;5776;51.814;4.510;2023-01-27T05:04:01;102743.72;;;5.43;100.00
11440;BME280;5776;51.814;4.510;2023-01-27T05:06:27;102737.69;;;5.40;100.00
11440;BME280;5776;51.814;4.510;2023-01-27T05:08:53;102739.75;;;5.38;100.00
11440;BME280;5776;51.814;4.510;2023-01-27T05:11:19;102745.97;;;5.39;100.00
11440;BME280;5776;51.814;4.510;2023-01-27T05:13:46;102743.50;;;5.37;100.00
11440;BME280;5776;51.814;4.510;2023-01-27T05:16:20;102744.13;;;5.39;100.00
11440;BME280;5776;51.814;4.510;2023-01-27T05:18:48;102748.47;;;5.40;100.00
11440;BME280;5776;51.814;4.510;2023-01-27T05:21:21;102743.28;;;5.39;100.00
11440;BME280;5776;51.814;4.510;2023-01-27T05:23:48;102748.25;;;5.35;100.00
11440;BME280;5776;51.814;4.510;2023-01-27T05:26:20;102752.81;;;5.35;100.00
11440;BME280;5776;51.814;4.510;2023-01-27T05:28:47;102742.88;;;5.35;100.00
11440;BME280;5776;51.814;4.510;2023-01-27T05:31:24;102748.25;;;5.35;100.00
11440;BME280;5776;51.814;4.510;2023-01-27T05:33:52;102740.38;;;5.34;100.00
11440;BME280;5776;51.814;4.510;2023-01-27T05:36:20;102750.56;;;5.32;100.00
11440;BME280;5776;51.814;4.510;2023-01-27T05:38:47;102760.69;;;5.36;100.00
11440;BME280;5776;51.814;4.510;2023-01-27T05:41:14;102752.00;;;5.34;100.00
11440;BME280;5776;51.814;4.510;2023-01-27T05:43:42;102754.69;;;5.34;100.00
11440;BME280;5776;51.814;4.510;2023-01-27T05:48:36;102755.09;;;5.31;100.00
11440;BME280;5776;51.814;4.510;2023-01-27T05:51:04;102763.16;;;5.31;100.00
11440;BME280;5776;51.814;4.510;2023-01-27T05:53:30;102770.22;;;5.32;100.00
11440;BME280;5776;51.814;4.510;2023-01-27T05:55:56;102768.16;;;5.34;100.00
11440;BME280;5776;51.814;4.510;2023-01-27T05:58:23;102771.88;;;5.33;100.00
11440;BME280;5776;51.814;4.510;2023-01-27T06:00:49;102771.88;;;5.33;100.00
11440;BME280;5776;51.814;4.510;2023-01-27T06:03:15;102772.50;;;5.35;100.00
11440;BME280;5776;51.814;4.510;2023-01-27T06:05:53;102769.19;;;5.33;100.00
11440;BME280;5776;51.814;4.510;2023-01-27T06:08:21;102772.09;;;5.32;100.00
11440;BME280;5776;51.814;4.510;2023-01-27T06:10:47;102779.34;;;5.31;100.00
11440;BME280;5776;51.814;4.510;2023-01-27T06:13:13;102773.94;;;5.31;100.00
11440;BME280;5776;51.814;4.510;2023-01-27T06:15:43;102781.00;;;5.32;100.00
11440;BME280;5776;51.814;4.510;2023-01-27T06:18:11;102781.63;;;5.34;100.00
11440;BME280;5776;51.814;4.510;2023-01-27T06:20:37;102772.69;;;5.34;100.00
11440;BME280;5776;51.814;4.510;2023-01-27T06:23:03;102777.28;;;5.33;100.00
11440;BME280;5776;51.814;4.510;2023-01-27T06:25:29;102777.28;;;5.33;100.00
11440;BME280;5776;51.814;4.510;2023-01-27T06:27:56;102785.34;;;5.33;100.00
11440;BME280;5776;51.814;4.510;2023-01-27T06:30:22;102781.00;;;5.32;100.00
11440;BME280;5776;51.814;4.510;2023-01-27T06:32:48;102789.91;;;5.33;100.00
11440;BME280;5776;51.814;4.510;2023-01-27T06:35:14;102781.00;;;5.32;100.00
11440;BME280;5776;51.814;4.510;2023-01-27T06:37:40;102789.09;;;5.32;100.00
11440;BME280;5776;51.814;4.510;2023-01-27T06:40:06;102788.47;;;5.30;100.00
11440;BME280;5776;51.814;4.510;2023-01-27T06:42:32;102787.63;;;5.30;100.00
11440;BME280;5776;51.814;4.510;2023-01-27T06:44:58;102788.03;;;5.33;100.00
11440;BME280;5776;51.814;4.510;2023-01-27T06:47:24;102791.56;;;5.34;100.00
11440;BME280;5776;51.814;4.510;2023-01-27T06:49:50;102791.78;;;5.32;100.00
11440;BME280;5776;51.814;4.510;2023-01-27T06:52:16;102784.56;;;5.39;100.00
11440;BME280;5776;51.814;4.510;2023-01-27T06:54:42;102789.09;;;5.59;100.00
11440;BME280;5776;51.814;4.510;2023-01-27T06:57:08;102792.63;;;5.66;100.00
11440;BME280;5776;51.814;4.510;2023-01-27T06:59:34;102799.47;;;5.69;100.00
11440;BME280;5776;51.814;4.510;2023-01-27T07:02:00;102801.97;;;5.70;100.00
11440;BME280;5776;51.814;4.510;2023-01-27T07:04:26;102805.94;;;5.74;100.00
11440;BME280;5776;51.814;4.510;2023-01-27T07:06:52;102812.53;;;5.78;100.00
11440;BME280;5776;51.814;4.510;2023-01-27T07:09:18;102811.72;;;5.78;100.00
11440;BME280;5776;51.814;4.510;2023-01-27T07:11:44;102815.25;;;5.78;100.00
11440;BME280;5776;51.814;4.510;2023-01-27T07:14:10;102817.94;;;5.78;100.00
11440;BME280;5776;51.814;4.510;2023-01-27T07:16:35;102810.66;;;5.79;100.00
11440;BME280;5776;51.814;4.510;2023-01-27T07:19:01;102812.34;;;5.80;100.00
11440;BME280;5776;51.814;4.510;2023-01-27T07:21:27;102812.13;;;5.81;100.00
11440;BME280;5776;51.814;4.510;2023-01-27T07:23:53;102820.22;;;5.81;100.00
11440;BME280;5776;51.814;4.510;2023-01-27T07:26:18;102806.97;;;5.80;100.00
11440;BME280;5776;51.814;4.510;2023-01-27T07:28:44;102808.19;;;5.77;100.00
11440;BME280;5776;51.814;4.510;2023-01-27T07:31:10;102811.94;;;5.63;100.00
11440;BME280;5776;51.814;4.510;2023-01-27T07:33:36;102814.63;;;5.50;100.00
11440;BME280;5776;51.814;4.510;2023-01-27T07:36:02;102815.84;;;5.47;100.00
11440;BME280;5776;51.814;4.510;2023-01-27T07:38:27;102815.41;;;5.44;100.00
11440;BME280;5776;51.814;4.510;2023-01-27T07:40:53;102820.38;;;5.20;100.00
11440;BME280;5776;51.814;4.510;2023-01-27T07:43:18;102819.91;;;5.10;99.34
11440;BME280;5776;51.814;4.510;2023-01-27T07:45:44;102809.59;;;5.33;100.00
11440;BME280;5776;51.814;4.510;2023-01-27T07:48:13;102823.94;;;5.60;100.00
11440;BME280;5776;51.814;4.510;2023-01-27T07:50:41;102815.66;;;5.62;100.00
11440;BME280;5776;51.814;4.510;2023-01-27T07:53:09;102821.66;;;5.51;100.00
11440;BME280;5776;51.814;4.510;2023-01-27T07:55:34;102825.38;;;5.56;100.00
11440;BME280;5776;51.814;4.510;2023-01-27T07:58:00;102833.50;;;5.63;100.00
11440;BME280;5776;51.814;4.510;2023-01-27T08:00:27;102848.22;;;5.67;100.00
11440;BME280;5776;51.814;4.510;2023-01-27T08:02:54;102849.06;;;5.81;100.00
11440;BME280;5776;51.814;4.510;2023-01-27T08:05:20;102852.81;;;5.80;100.00
11440;BME280;5776;51.814;4.510;2023-01-27T08:07:48;102860.06;;;5.79;100.00
11440;BME280;5776;51.814;4.510;2023-01-27T08:10:15;102863.78;;;5.78;100.00
11440;BME280;5776;51.814;4.510;2023-01-27T08:12:44;102863.78;;;5.78;100.00
11440;BME280;5776;51.814;4.510;2023-01-27T08:15:10;102868.34;;;5.78;100.00
11440;BME280;5776;51.814;4.510;2023-01-27T08:17:36;102876.44;;;5.78;100.00
11440;BME280;5776;51.814;4.510;2023-01-27T08:20:03;102876.25;;;5.79;100.00
11440;BME280;5776;51.814;4.510;2023-01-27T08:22:29;102877.25;;;5.78;100.00
11440;BME280;5776;51.814;4.510;2023-01-27T08:24:55;102872.50;;;5.80;100.00
11440;BME280;5776;51.814;4.510;2023-01-27T08:27:21;102872.50;;;5.80;100.00
11440;BME280;5776;51.814;4.510;2023-01-27T08:29:47;102877.88;;;5.80;100.00
11440;BME280;5776;51.814;4.510;2023-01-27T08:32:13;102880.59;;;5.80;100.00
11440;BME280;5776;51.814;4.510;2023-01-27T08:34:39;102876.84;;;5.81;100.00
11440;BME280;5776;51.814;4.510;2023-01-27T08:37:05;102876.84;;;5.81;100.00
11440;BME280;5776;51.814;4.510;2023-01-27T08:39:32;102884.94;;;5.81;100.00
11440;BME280;5776;51.814;4.510;2023-01-27T08:41:58;102882.25;;;5.81;100.00
11440;BME280;5776;51.814;4.510;2023-01-27T08:44:25;102893.88;;;5.82;100.00
11440;BME280;5776;51.814;4.510;2023-01-27T08:46:54;102900.09;;;5.82;100.00
11440;BME280;5776;51.814;4.510;2023-01-27T08:49:20;102892.81;;;5.83;100.00
11440;BME280;5776;51.814;4.510;2023-01-27T08:51:47;102892.19;;;5.81;100.00
11440;BME280;5776;51.814;4.510;2023-01-27T08:54:12;102897.06;;;5.31;100.00
11440;BME280;5776;51.814;4.510;2023-01-27T08:56:38;102891.84;;;5.16;99.74
11440;BME280;5776;51.814;4.510;2023-01-27T08:59:03;102890.19;;;5.15;99.08
11440;BME280;5776;51.814;4.510;2023-01-27T09:01:29;102891.72;;;5.37;99.61
11440;BME280;5776;51.814;4.510;2023-01-27T09:03:55;102897.75;;;5.53;100.00
11440;BME280;5776;51.814;4.510;2023-01-27T09:06:21;102902.94;;;5.61;100.00
11440;BME280;5776;51.814;4.510;2023-01-27T09:08:47;102902.16;;;5.67;100.00
11440;BME280;5776;51.814;4.510;2023-01-27T09:11:37;102898.00;;;5.71;100.00
11440;BME280;5776;51.814;4.510;2023-01-27T09:14:04;102894.06;;;5.74;100.00
11440;BME280;5776;51.814;4.510;2023-01-27T09:16:30;102900.06;;;5.76;100.00
11440;BME280;5776;51.814;4.510;2023-01-27T09:18:56;102899.69;;;5.92;100.00
11440;BME280;5776;51.814;4.510;2023-01-27T09:21:24;102888.06;;;5.92;100.00
11440;BME280;5776;51.814;4.510;2023-01-27T09:23:50;102895.94;;;5.93;100.00
11440;BME280;5776;51.814;4.510;2023-01-27T09:26:16;102894.50;;;5.91;100.00
11440;BME280;5776;51.814;4.510;2023-01-27T09:28:42;102902.59;;;5.91;100.00
11440;BME280;5776;51.814;4.510;2023-01-27T09:31:08;102898.84;;;5.92;100.00
11440;BME280;5776;51.814;4.510;2023-01-27T09:33:35;102904.03;;;5.93;100.00
11440;BME280;5776;51.814;4.510;2023-01-27T09:36:10;102903.22;;;5.93;100.00
11440;BME280;5776;51.814;4.510;2023-01-27T09:38:44;102900.94;;;5.90;100.00
11440;BME280;5776;51.814;4.510;2023-01-27T09:44:14;102896.34;;;5.83;100.00
11440;BME280;5776;51.814;4.510;2023-01-27T09:58:11;102905.06;;;5.79;100.00
11440;BME280;5776;51.814;4.510;2023-01-27T10:00:57;102908.59;;;5.79;100.00
11440;BME280;5776;51.814;4.510;2023-01-27T10:03:45;102905.91;;;5.79;100.00
11440;BME280;5776;51.814;4.510;2023-01-27T10:09:19;102897.19;;;5.77;100.00
11440;BME280;5776;51.814;4.510;2023-01-27T10:12:09;102899.88;;;5.77;100.00
11440;BME280;5776;51.814;4.510;2023-01-27T10:20:18;102899.25;;;5.89;100.00
11440;BME280;5776;51.814;4.510;2023-01-27T10:28:36;102903.88;;;5.95;100.00
11440;BME280;5776;51.814;4.510;2023-01-27T10:31:24;102912.78;;;5.95;100.00
11440;BME280;5776;51.814;4.510;2023-01-27T10:33:53;102913.41;;;5.97;100.00
11440;BME280;5776;51.814;4.510;2023-01-27T10:36:28;102909.88;;;5.97;100.00
11440;BME280;5776;51.814;4.510;2023-01-27T10:39:14;102910.72;;;5.97;100.00
11440;BME280;5776;51.814;4.510;2023-01-27T10:44:51;102908.03;;;5.97;100.00
11440;BME280;5776;51.814;4.510;2023-01-27T10:47:31;102917.75;;;5.98;100.00
11440;BME280;5776;51.814;4.510;2023-01-27T10:50:03;102915.06;;;5.98;100.00
11440;BME280;5776;51.814;4.510;2023-01-27T10:52:39;102914.25;;;5.98;100.00
11440;BME280;5776;51.814;4.510;2023-01-27T10:57:56;102918.38;;;5.94;100.00
11440;BME280;5776;51.814;4.510;2023-01-27T11:03:09;102912.88;;;5.54;99.35
11440;BME280;5776;51.814;4.510;2023-01-27T11:05:50;102915.81;;;5.52;98.35
11440;BME280;5776;51.814;4.510;2023-01-27T11:08:23;102912.88;;;5.54;99.08
11440;BME280;5776;51.814;4.510;2023-01-27T11:10:54;102923.44;;;5.49;98.18
11440;BME280;5776;51.814;4.510;2023-01-27T11:13:40;102897.34;;;5.49;98.37
11440;BME280;5776;51.814;4.510;2023-01-27T11:16:14;102895.03;;;5.46;98.24
11440;BME280;5776;51.814;4.510;2023-01-27T11:18:41;102895.63;;;5.41;97.78
11440;BME280;5776;51.814;4.510;2023-01-27T11:21:23;102892.56;;;5.45;97.82
11440;BME280;5776;51.814;4.510;2023-01-27T11:23:53;102883.84;;;5.43;97.82
11440;BME280;5776;51.814;4.510;2023-01-27T11:26:26;102900.00;;;5.43;97.21
11440;BME280;5776;51.814;4.510;2023-01-27T11:34:33;102897.50;;;5.41;98.68
11440;BME280;5776;51.814;4.510;2023-01-27T11:39:39;102883.41;;;5.39;99.07
11440;BME280;5776;51.814;4.510;2023-01-27T11:42:05;102887.97;;;5.38;99.23
11440;BME280;5776;51.814;4.510;2023-01-27T11:44:33;102886.91;;;5.33;98.02
11440;BME280;5776;51.814;4.510;2023-01-27T11:47:01;102893.78;;;5.49;100.00
11440;BME280;5776;51.814;4.510;2023-01-27T11:49:34;102888.03;;;5.65;99.77
11440;BME280;5776;51.814;4.510;2023-01-27T11:52:10;102889.50;;;5.74;100.00
11440;BME280;5776;51.814;4.510;2023-01-27T11:54:47;102888.03;;;5.78;100.00
11440;BME280;5776;51.814;4.510;2023-01-27T11:57:20;102883.28;;;5.80;100.00
11440;BME280;5776;51.814;4.510;2023-01-27T12:00:28;102886.38;;;5.84;100.00
11440;BME280;5776;51.814;4.510;2023-01-27T12:06:04;102874.22;;;5.95;100.00
11440;BME280;5776;51.814;4.510;2023-01-27T12:08:44;102873.34;;;5.94;100.00
11440;BME280;5776;51.814;4.510;2023-01-27T12:16:16;102866.13;;;5.95;100.00
11440;BME280;5776;51.814;4.510;2023-01-27T12:19:12;102862.56;;;5.94;100.00
11440;BME280;5776;51.814;4.510;2023-01-27T12:21:45;102868.81;;;5.95;100.00
11440;BME280;5776;51.814;4.510;2023-01-27T12:24:21;102865.06;;;5.96;100.00
11440;BME280;5776;51.814;4.510;2023-01-27T12:26:50;102861.53;;;5.95;100.00
11440;BME280;5776;51.814;4.510;2023-01-27T12:29:25;102868.59;;;5.96;100.00
11440;BME280;5776;51.814;4.510;2023-01-27T12:31:53;102864.88;;;5.97;100.00
11440;BME280;5776;51.814;4.510;2023-01-27T12:34:27;102865.28;;;6.01;100.00
11440;BME280;5776;51.814;4.510;2023-01-27T12:36:55;102859.06;;;6.00;100.00
11440;BME280;5776;51.814;4.510;2023-01-27T12:41:53;102865.25;;;6.14;100.00
11440;BME280;5776;51.814;4.510;2023-01-27T12:44:20;102857.16;;;6.14;100.00
11440;BME280;5776;51.814;4.510;2023-01-27T12:47:02;102861.97;;;6.12;100.00
11440;BME280;5776;51.814;4.510;2023-01-27T12:49:35;102862.34;;;6.09;100.00
11440;BME280;5776;51.814;4.510;2023-01-27T12:52:04;102848.28;;;6.07;100.00
11440;BME280;5776;51.814;4.510;2023-01-27T12:54:33;102847.41;;;6.06;100.00
11440;BME280;5776;51.814;4.510;2023-01-27T12:57:05;102853.84;;;6.05;100.00
11440;BME280;5776;51.814;4.510;2023-01-27T12:59:50;102859.06;;;6.07;100.00
11440;BME280;5776;51.814;4.510;2023-01-27T13:02:20;102858.41;;;6.12;100.00
11440;BME280;5776;51.814;4.510;2023-01-27T13:05:00;102855.94;;;6.10;100.00
11440;BME280;5776;51.814;4.510;2023-01-27T13:07:43;102858.84;;;6.15;100.00
11440;BME280;5776;51.814;4.510;2023-01-27T13:10:19;102852.81;;;6.13;100.00
11440;BME280;5776;51.814;4.510;2023-01-27T13:12:49;102850.75;;;6.09;100.00
11440;BME280;5776;51.814;4.510;2023-01-27T13:15:21;102848.28;;;6.07;100.00
11440;BME280;5776;51.814;4.510;2023-01-27T13:17:52;102845.78;;;6.05;100.00
11440;BME280;5776;51.814;4.510;2023-01-27T13:22:55;102845.75;;;6.25;100.00
11440;BME280;5776;51.814;4.510;2023-01-27T13:25:28;102843.25;;;6.24;100.00
11440;BME280;5776;51.814;4.510;2023-01-27T13:27:58;102841.16;;;6.19;100.00
11440;BME280;5776;51.814;4.510;2023-01-27T13:30:39;102844.53;;;6.15;100.00
11440;BME280;5776;51.814;4.510;2023-01-27T13:35:57;102850.34;;;6.05;100.00
11440;BME280;5776;51.814;4.510;2023-01-27T13:38:35;102852.38;;;5.90;100.00
11440;BME280;5776;51.814;4.510;2023-01-27T13:41:07;102849.06;;;5.88;100.00
11440;BME280;5776;51.814;4.510;2023-01-27T13:43:39;102848.44;;;5.92;100.00
11440;BME280;5776;51.814;4.510;2023-01-27T13:46:24;102854.47;;;5.74;100.00
11440;BME280;5776;51.814;4.510;2023-01-27T13:48:56;102852.16;;;5.71;100.00
11440;BME280;5776;51.814;4.510;2023-01-27T13:51:29;102851.97;;;5.79;100.00
11440;BME280;5776;51.814;4.510;2023-01-27T13:54:00;102852.19;;;5.84;100.00
11440;BME280;5776;51.814;4.510;2023-01-27T14:18:19;102868.38;;;6.24;100.00
11440;BME280;5776;51.814;4.510;2023-01-27T14:34:31;102870.22;;;6.24;100.00
11440;BME280;5776;51.814;4.510;2023-01-27T14:58:31;102895.16;;;6.26;100.00
11440;BME280;5776;51.814;4.510;2023-01-27T15:04:19;102892.25;;;6.27;100.00
11440;BME280;5776;51.814;4.510;2023-01-27T15:06:59;102900.69;;;6.64;100.00
11440;BME280;5776;51.814;4.510;2023-01-27T15:09:43;102903.88;;;6.35;100.00
11440;BME280;5776;51.814;4.510;2023-01-27T15:17:40;102898.06;;;5.98;100.00
11440;BME280;5776;51.814;4.510;2023-01-27T15:25:43;102907.78;;;5.85;100.00
11440;BME280;5776;51.814;4.510;2023-01-27T15:28:13;102911.13;;;6.14;100.00
11440;BME280;5776;51.814;4.510;2023-01-27T15:36:35;102912.56;;;6.37;100.00